Time;durP1;ratioP1;P1;durP2;ratioP2;P2;SDS_P1;SDS_P2;PMS_P1;PMS_P2;Temp;Humidity;BMP_temperature;BMP_pressure;BME280_temperature;BME280_humidity;BME280_pressure;Samples;Min_cycle;Max_cycle;Signal;HPM_P1;HPM_P2
2023/05/27 00:00:16;;;;;;;17.33;4.83;;;;;;;10.41;100.00;103047.06;5010822;28;20225;-74
2023/05/27 00:02:42;;;;;;;17.07;4.87;;;;;;;10.42;100.00;103047.13;5010734;28;20719;-74
2023/05/27 00:05:07;;;;;;;12.50;4.70;;;;;;;10.26;100.00;103041.97;5010848;28;20223;-74
2023/05/27 00:07:33;;;;;;;13.77;4.20;;;;;;;10.28;100.00;103040.34;5011131;28;20703;-74
2023/05/27 00:09:58;;;;;;;13.90;4.37;;;;;;;10.22;100.00;103041.69;4993069;28;20810;-75
2023/05/27 00:12:24;;;;;;;17.57;5.33;;;;;;;10.21;100.00;103045.94;4993116;28;20207;-74
2023/05/27 00:14:50;;;;;;;15.07;4.97;;;;;;;10.27;100.00;103038.59;5010496;28;20202;-75
2023/05/27 00:17:15;;;;;;;16.90;5.20;;;;;;;10.13;100.00;103036.09;5026221;28;20199;-74
2023/05/27 00:19:42;;;;;;;18.33;4.60;;;;;;;10.18;100.00;103042.34;5010083;28;20217;-75
2023/05/27 00:22:07;;;;;;;12.60;4.43;;;;;;;10.11;100.00;103045.34;5010470;28;20251;-75
2023/05/27 00:24:38;;;;;;;16.23;4.50;;;;;;;10.07;100.00;103041.72;5009645;28;20195;-75
2023/05/27 00:27:05;;;;;;;19.07;4.97;;;;;;;10.03;100.00;103039.75;5004953;28;20190;-74
2023/05/27 00:29:31;;;;;;;18.00;4.80;;;;;;;9.82;100.00;103038.53;5009938;28;20207;-74
2023/05/27 00:31:56;;;;;;;14.50;4.50;;;;;;;9.84;100.00;103039.50;5008066;28;20281;-74
2023/05/27 00:34:22;;;;;;;11.87;4.73;;;;;;;9.70;100.00;103045.50;5009959;28;20286;-74
2023/05/27 00:36:47;;;;;;;13.47;4.70;;;;;;;9.72;100.00;103041.34;4993011;28;20682;-74
2023/05/27 00:39:13;;;;;;;16.73;4.63;;;;;;;9.82;100.00;103047.91;4992652;28;20222;-74
2023/05/27 00:41:43;;;;;;;16.37;4.97;;;;;;;9.81;100.00;103039.31;5009701;28;20278;-74
2023/05/27 00:44:08;;;;;;;16.30;4.80;;;;;;;9.81;100.00;103041.03;5010298;28;20277;-74
2023/05/27 00:46:34;;;;;;;16.13;4.57;;;;;;;9.64;100.00;103044.25;4991680;28;20278;-73
2023/05/27 00:48:59;;;;;;;15.97;5.23;;;;;;;9.66;100.00;103043.56;4978821;28;20191;-73
2023/05/27 00:51:25;;;;;;;16.10;4.90;;;;;;;9.61;100.00;103044.97;4992017;28;20676;-74
2023/05/27 00:53:50;;;;;;;22.30;5.30;;;;;;;9.62;100.00;103045.84;4993197;28;20241;-75
2023/05/27 00:56:17;;;;;;;13.47;4.73;;;;;;;9.64;100.00;103042.56;4992383;28;20909;-75
2023/05/27 00:58:43;;;;;;;15.47;4.10;;;;;;;9.50;100.00;103040.88;4995144;28;20187;-75
2023/05/27 01:01:09;;;;;;;13.77;4.17;;;;;;;9.54;100.00;103039.41;4994991;28;20257;-76
2023/05/27 01:03:35;;;;;;;13.87;4.57;;;;;;;9.50;100.00;103040.88;4993227;28;20191;-74
2023/05/27 01:06:21;;;;;;;17.10;5.37;;;;;;;9.35;100.00;103034.88;5007778;28;20187;-75
2023/05/27 01:09:08;;;;;;;12.53;4.13;;;;;;;9.42;100.00;103031.00;4995220;28;20242;-74
2023/05/27 01:11:51;;;;;;;11.73;3.93;;;;;;;9.32;100.00;103032.16;4991800;28;20245;-74
2023/05/27 01:14:18;;;;;;;12.50;4.60;;;;;;;9.32;100.00;103029.59;4973921;28;20233;-75
2023/05/27 01:16:46;;;;;;;15.20;4.37;;;;;;;9.31;100.00;103027.81;5021697;28;20198;-75
2023/05/27 01:19:14;;;;;;;13.10;4.47;;;;;;;9.27;100.00;103027.56;4995131;28;20218;-75
2023/05/27 01:21:47;;;;;;;17.37;4.60;;;;;;;9.26;100.00;103033.47;5008895;28;20245;-74
2023/05/27 01:24:12;;;;;;;17.53;5.33;;;;;;;9.24;100.00;103043.59;4991802;28;20202;-74
2023/05/27 01:26:39;;;;;;;16.67;5.10;;;;;;;9.25;100.00;103044.44;4997871;28;20222;-74
2023/05/27 01:29:06;;;;;;;16.70;4.83;;;;;;;9.21;100.00;103037.41;4992460;28;20191;-75
2023/05/27 01:31:36;;;;;;;14.83;4.80;;;;;;;9.06;100.00;103029.69;5006782;28;20210;-74
2023/05/27 01:34:08;;;;;;;18.50;5.50;;;;;;;9.05;100.00;103048.38;5007000;28;20190;-74
2023/05/27 01:36:44;;;;;;;15.77;5.00;;;;;;;9.01;100.00;103042.97;5008946;28;20187;-73
2023/05/27 01:39:11;;;;;;;13.90;4.70;;;;;;;9.09;100.00;103039.22;4984118;28;20218;-74
2023/05/27 01:41:39;;;;;;;18.97;5.20;;;;;;;9.07;100.00;103036.56;4994660;28;20780;-75
2023/05/27 01:44:06;;;;;;;16.23;5.57;;;;;;;9.02;100.00;103037.97;4977826;28;20191;-74
2023/05/27 01:46:32;;;;;;;15.70;4.83;;;;;;;8.98;100.00;103040.25;4994861;28;20569;-75
2023/05/27 01:48:58;;;;;;;14.33;4.87;;;;;;;8.93;100.00;103033.97;4991324;28;20215;-75
2023/05/27 01:51:23;;;;;;;15.80;5.27;;;;;;;8.89;100.00;103034.59;5008489;28;20214;-74
2023/05/27 01:53:49;;;;;;;18.67;4.83;;;;;;;8.86;100.00;103035.28;5008863;28;20198;-74
2023/05/27 01:56:14;;;;;;;18.73;6.07;;;;;;;8.80;100.00;103034.03;4997905;28;20199;-75
2023/05/27 01:58:40;;;;;;;15.17;4.83;;;;;;;8.84;100.00;103026.63;4991310;28;20195;-75
2023/05/27 02:01:05;;;;;;;16.60;5.30;;;;;;;8.85;100.00;103027.53;4990695;28;20214;-73
2023/05/27 02:03:31;;;;;;;16.00;4.37;;;;;;;8.77;100.00;103023.59;4991079;28;20272;-75
2023/05/27 02:05:56;;;;;;;13.47;4.53;;;;;;;8.74;100.00;103020.84;4988877;28;20195;-76
2023/05/27 02:08:22;;;;;;;13.97;4.77;;;;;;;8.70;100.00;103022.34;4991085;28;20581;-73
2023/05/27 02:10:48;;;;;;;18.17;5.23;;;;;;;8.60;100.00;103025.13;4991316;28;20253;-74
2023/05/27 02:13:13;;;;;;;13.03;5.47;;;;;;;8.62;100.00;103025.22;4994152;28;20265;-74
2023/05/27 02:15:40;;;;;;;13.33;4.90;;;;;;;8.57;100.00;103021.50;4993159;28;20194;-74
2023/05/27 02:18:06;;;;;;;15.13;5.23;;;;;;;8.56;100.00;103018.06;4990744;28;20249;-73
2023/05/27 02:20:31;;;;;;;15.67;4.93;;;;;;;8.56;100.00;103024.81;4990680;28;20620;-74
2023/05/27 02:22:57;;;;;;;16.27;5.13;;;;;;;8.57;100.00;103021.50;4989687;28;20195;-74
2023/05/27 02:25:23;;;;;;;14.23;4.63;;;;;;;8.51;100.00;103029.66;5008959;28;20248;-77
2023/05/27 02:27:50;;;;;;;13.17;5.07;;;;;;;8.50;100.00;103017.69;4975705;28;20199;-74
2023/05/27 02:30:15;;;;;;;14.30;5.00;;;;;;;8.40;100.00;103017.00;4990655;28;20231;-73
2023/05/27 02:32:41;;;;;;;13.97;4.70;;;;;;;8.29;100.00;103029.09;4987025;28;20329;-73
2023/05/27 02:35:08;;;;;;;17.20;5.57;;;;;;;8.37;100.00;103032.13;4989428;28;20241;-74
2023/05/27 02:37:34;;;;;;;15.17;5.30;;;;;;;8.39;100.00;103025.47;4978147;28;20238;-75
2023/05/27 02:39:59;;;;;;;17.20;5.50;;;;;;;8.26;100.00;103026.34;5007723;28;20246;-74
2023/05/27 02:42:26;;;;;;;13.73;5.60;;;;;;;8.36;100.00;103028.69;4990150;28;20190;-74
2023/05/27 02:44:51;;;;;;;12.67;4.83;;;;;;;8.38;100.00;103029.66;5008285;28;20203;-73
2023/05/27 02:47:17;;;;;;;12.67;5.03;;;;;;;8.35;100.00;103021.84;4991058;28;20191;-76
2023/05/27 02:49:42;;;;;;;13.67;5.63;;;;;;;8.33;100.00;103023.38;4990394;28;20273;-75
2023/05/27 02:52:08;;;;;;;21.13;5.70;;;;;;;8.30;100.00;103027.44;4994512;28;20217;-74
2023/05/27 02:54:33;;;;;;;20.47;6.30;;;;;;;8.33;100.00;103025.94;4993747;28;20640;-74
2023/05/27 02:56:59;;;;;;;19.57;6.00;;;;;;;8.26;100.00;103028.00;4994028;28;20401;-76
2023/05/27 02:59:25;;;;;;;21.00;6.10;;;;;;;8.23;100.00;103033.81;4994199;28;20214;-74
2023/05/27 03:01:50;;;;;;;13.73;5.40;;;;;;;8.18;100.00;103026.59;4993937;28;20222;-74
2023/05/27 03:04:16;;;;;;;14.77;5.73;;;;;;;8.16;100.00;103026.50;4978171;28;20192;-74
2023/05/27 03:06:42;;;;;;;14.60;5.47;;;;;;;8.17;100.00;103025.75;5010859;28;20204;-74
2023/05/27 03:09:09;;;;;;;16.80;6.70;;;;;;;8.14;100.00;103028.09;4994198;28;20623;-74
2023/05/27 03:11:35;;;;;;;13.17;5.00;;;;;;;8.11;100.00;103030.44;5011544;28;20697;-75
2023/05/27 03:14:00;;;;;;;11.90;5.10;;;;;;;8.12;100.00;103026.22;4978039;28;20260;-74
2023/05/27 03:16:25;;;;;;;16.87;5.40;;;;;;;8.03;100.00;103021.41;5007871;28;20198;-74
2023/05/27 03:18:51;;;;;;;18.57;5.37;;;;;;;8.00;100.00;103025.41;4996831;28;20771;-75
2023/05/27 03:21:16;;;;;;;14.47;5.20;;;;;;;8.04;100.00;103025.72;4994079;28;20213;-74
2023/05/27 03:23:44;;;;;;;14.40;5.23;;;;;;;8.09;100.00;103029.47;4994072;28;20198;-75
2023/05/27 03:26:09;;;;;;;16.37;5.20;;;;;;;8.06;100.00;103031.81;4994038;28;20191;-74
2023/05/27 03:28:35;;;;;;;14.90;5.30;;;;;;;8.06;100.00;103031.81;4981697;28;20221;-73
2023/05/27 03:31:00;;;;;;;16.70;5.87;;;;;;;8.10;100.00;103027.78;4976894;28;20281;-75
2023/05/27 03:33:39;;;;;;;17.30;5.83;;;;;;;8.00;100.00;103039.06;5023461;28;20687;-74
2023/05/27 03:36:04;;;;;;;14.03;5.63;;;;;;;8.08;100.00;103031.91;4997482;28;20227;-74
2023/05/27 03:38:30;;;;;;;14.10;5.00;;;;;;;8.02;100.00;103027.28;4994592;28;20191;-74
2023/05/27 03:40:56;;;;;;;16.77;5.23;;;;;;;8.01;100.00;103037.41;4994186;28;20219;-73
2023/05/27 03:43:22;;;;;;;17.63;5.97;;;;;;;8.05;100.00;103031.69;4993554;28;20249;-74
2023/05/27 03:45:47;;;;;;;21.23;6.57;;;;;;;8.13;100.00;103038.19;4993670;28;20202;-75
2023/05/27 03:48:13;;;;;;;20.03;5.73;;;;;;;8.14;100.00;103030.63;4997525;28;20193;-74
2023/05/27 03:50:38;;;;;;;16.10;5.47;;;;;;;8.17;100.00;103023.19;4992918;28;20215;-74
2023/05/27 03:53:04;;;;;;;16.90;6.00;;;;;;;8.21;100.00;103039.59;4993220;28;20664;-74
2023/05/27 03:55:30;;;;;;;15.37;5.17;;;;;;;8.22;100.00;103038.81;4993235;28;20198;-73
2023/05/27 03:57:55;;;;;;;11.63;5.83;;;;;;;8.25;100.00;103034.78;4993036;28;20195;-74
2023/05/27 04:00:21;;;;;;;15.00;6.00;;;;;;;8.26;100.00;103028.00;4993081;28;20214;-73
2023/05/27 04:02:51;;;;;;;17.03;6.10;;;;;;;8.25;100.00;103034.78;4995149;28;20246;-75
2023/05/27 04:05:16;;;;;;;12.77;5.53;;;;;;;8.29;100.00;103026.53;4997020;28;20668;-74
2023/05/27 04:07:42;;;;;;;16.87;6.27;;;;;;;8.37;100.00;103027.00;5010019;28;20226;-73
2023/05/27 04:10:08;;;;;;;13.87;6.30;;;;;;;8.44;100.00;103024.06;4992659;28;20280;-73
2023/05/27 04:12:34;;;;;;;15.87;6.30;;;;;;;8.45;100.00;103031.84;5010751;28;20597;-74
2023/05/27 04:15:00;;;;;;;18.20;6.10;;;;;;;8.53;100.00;103034.88;4992846;28;20661;-73
2023/05/27 04:17:26;;;;;;;14.37;6.30;;;;;;;8.57;100.00;103032.56;5008968;28;20650;-74
2023/05/27 04:19:51;;;;;;;17.03;6.00;;;;;;;8.64;100.00;103033.84;5009958;28;20218;-75
2023/05/27 04:22:17;;;;;;;19.07;6.40;;;;;;;8.72;100.00;103037.75;4976684;28;20347;-74
2023/05/27 04:24:45;;;;;;;18.47;6.10;;;;;;;8.75;100.00;103027.75;4989874;28;20191;-73
2023/05/27 04:27:12;;;;;;;14.03;6.30;;;;;;;8.81;100.00;103015.34;4996825;28;20253;-72
2023/05/27 04:29:38;;;;;;;16.17;6.33;;;;;;;8.85;100.00;103020.72;4995772;28;20206;-72
2023/05/27 04:32:05;;;;;;;15.03;5.90;;;;;;;8.90;100.00;103027.00;4978355;28;20214;-75
2023/05/27 04:34:32;;;;;;;17.63;6.40;;;;;;;8.97;100.00;103028.25;4995959;28;20199;-74
2023/05/27 04:37:00;;;;;;;20.63;6.93;;;;;;;9.03;100.00;103029.50;4992902;28;20565;-75
2023/05/27 04:39:26;;;;;;;22.43;6.63;;;;;;;9.06;100.00;103022.03;4987657;28;20301;-76
2023/05/27 04:41:52;;;;;;;17.10;5.90;;;;;;;9.16;100.00;103031.13;4991510;28;20341;-79
2023/05/27 04:44:28;;;;;;;19.50;6.83;;;;;;;9.19;100.00;103022.00;4991421;28;20196;-75
2023/05/27 04:46:58;;;;;;;18.90;6.07;;;;;;;9.26;100.00;103023.25;4978013;28;20282;-77
2023/05/27 04:49:24;;;;;;;18.23;6.43;;;;;;;9.33;100.00;103017.69;4997178;28;20639;-75
2023/05/27 04:51:49;;;;;;;20.70;6.67;;;;;;;9.38;100.00;103021.38;5007421;28;20211;-74
2023/05/27 04:54:18;;;;;;;16.27;6.07;;;;;;;9.47;100.00;103024.50;4995016;28;20816;-74
2023/05/27 04:56:44;;;;;;;17.23;5.60;;;;;;;9.54;100.00;103019.81;5010030;28;20229;-73
2023/05/27 04:59:18;;;;;;;15.43;6.27;;;;;;;9.60;100.00;103020.19;4991729;28;20239;-75
2023/05/27 05:02:09;;;;;;;18.03;6.03;;;;;;;9.69;100.00;103024.94;4987232;28;20536;-75
2023/05/27 05:04:37;;;;;;;18.23;5.80;;;;;;;9.77;100.00;103016.91;4991119;28;20205;-74
2023/05/27 05:07:04;;;;;;;18.20;6.43;;;;;;;9.87;100.00;103010.66;4992004;28;20253;-75
2023/05/27 05:09:31;;;;;;;20.90;6.23;;;;;;;9.96;100.00;103011.19;4975386;28;20234;-77
2023/05/27 05:12:04;;;;;;;18.00;6.20;;;;;;;10.02;100.00;103016.63;4991801;28;20738;-75
2023/05/27 05:14:33;;;;;;;17.90;5.93;;;;;;;10.14;100.00;103012.25;5004861;28;20286;-74
2023/05/27 05:16:58;;;;;;;14.77;6.27;;;;;;;10.24;100.00;103014.50;5000393;28;20621;-75
2023/05/27 05:19:24;;;;;;;14.47;5.83;;;;;;;10.29;100.00;103007.97;4996117;28;20210;-74
2023/05/27 05:21:50;;;;;;;16.37;6.43;;;;;;;10.42;100.00;103010.41;4980725;28;20225;-75
2023/05/27 05:24:15;;;;;;;16.43;5.97;;;;;;;10.51;100.00;103003.22;4991703;28;20648;-74
2023/05/27 05:26:44;;;;;;;15.73;6.27;;;;;;;10.60;100.00;103006.28;4991605;28;21195;-76
2023/05/27 05:29:10;;;;;;;17.47;6.07;;;;;;;10.71;100.00;103000.94;4979210;28;20773;-74
2023/05/27 05:31:36;;;;;;;15.17;5.63;;;;;;;10.83;100.00;103003.28;4991173;28;20273;-75
2023/05/27 05:34:02;;;;;;;14.60;5.73;;;;;;;10.89;100.00;102995.88;4978034;28;20191;-75
2023/05/27 05:36:30;;;;;;;18.00;6.67;;;;;;;10.97;100.00;103005.72;4994185;28;20651;-74
2023/05/27 05:39:02;;;;;;;16.47;5.50;;;;;;;11.09;100.00;103008.94;4991424;28;20290;-74
2023/05/27 05:41:29;;;;;;;17.27;6.17;;;;;;;11.09;100.00;103008.94;5001360;28;20245;-72
2023/05/27 05:43:56;;;;;;;16.10;5.60;;;;;;;11.29;100.00;103007.41;4994204;28;20188;-74
2023/05/27 05:46:21;;;;;;;13.37;5.97;;;;;;;11.34;100.00;103011.09;4989265;28;20325;-74
2023/05/27 05:48:47;;;;;;;19.03;5.87;;;;;;;11.34;100.00;103017.09;4990887;28;20231;-74
2023/05/27 05:51:19;;;;;;;12.37;4.80;;;;;;;11.48;100.00;103003.28;4995965;28;20207;-73
2023/05/27 05:53:50;;;;;;;15.33;5.43;;;;;;;11.64;100.00;103002.38;4992472;28;20195;-75
2023/05/27 05:56:16;;;;;;;13.87;5.60;;;;;;;11.74;100.00;103013.19;4988286;28;23181;-75
2023/05/27 05:58:41;;;;;;;16.13;6.50;;;;;;;11.79;100.00;103013.41;4991373;28;20214;-74
2023/05/27 06:01:07;;;;;;;16.70;6.03;;;;;;;11.92;100.00;103010.63;5008890;28;20227;-73
2023/05/27 06:03:37;;;;;;;12.70;5.80;;;;;;;11.97;100.00;103006.59;4994424;28;20204;-74
2023/05/27 06:06:04;;;;;;;13.13;5.00;;;;;;;12.14;100.00;103016.91;4991567;28;20187;-74
2023/05/27 06:08:32;;;;;;;16.63;5.60;;;;;;;12.20;100.00;103006.91;4996786;28;20253;-72
2023/05/27 06:11:03;;;;;;;17.30;5.87;;;;;;;12.31;100.00;103010.84;4993642;28;20219;-74
2023/05/27 06:13:31;;;;;;;13.53;5.83;;;;;;;12.44;100.00;103010.63;4996558;28;20187;-74
2023/05/27 06:15:58;;;;;;;14.00;5.60;;;;;;;12.67;100.00;103016.84;5001692;28;20207;-73
2023/05/27 06:18:24;;;;;;;14.03;5.83;;;;;;;12.82;100.00;103012.38;4985627;28;20190;-73
2023/05/27 06:20:49;;;;;;;15.53;5.60;;;;;;;12.90;100.00;103000.75;4992361;28;20349;-75
2023/05/27 06:23:15;;;;;;;13.63;5.23;;;;;;;13.05;100.00;103010.84;4999144;28;20580;-76
2023/05/27 06:26:10;;;;;;;16.47;5.07;;;;;;;13.24;100.00;103009.16;4996032;28;20230;-75
2023/05/27 06:28:42;;;;;;;15.67;5.27;;;;;;;13.44;100.00;103008.31;4994427;28;20195;-74
2023/05/27 06:31:08;;;;;;;17.67;5.67;;;;;;;13.58;100.00;103009.78;4984111;28;20211;-74
2023/05/27 06:33:33;;;;;;;12.83;4.73;;;;;;;13.72;100.00;103012.94;5000569;28;20199;-74
2023/05/27 06:35:59;;;;;;;15.30;4.77;;;;;;;13.85;100.00;103008.34;4993055;28;20195;-73
2023/05/27 06:38:24;;;;;;;14.27;5.20;;;;;;;13.89;100.00;103010.22;5000181;28;20293;-74
2023/05/27 06:40:52;;;;;;;13.93;4.90;;;;;;;13.63;100.00;103007.41;5001190;28;20265;-75
2023/05/27 06:43:18;;;;;;;16.10;5.70;;;;;;;14.04;100.00;103005.69;4997078;28;20202;-73
2023/05/27 06:46:07;;;;;;;15.77;5.30;;;;;;;14.24;100.00;102993.63;4992152;28;20221;-74
2023/05/27 06:49:04;;;;;;;15.07;5.20;;;;;;;14.30;100.00;102979.28;4990031;28;20199;-76
2023/05/27 06:51:31;;;;;;;15.37;5.60;;;;;;;14.52;100.00;102987.03;4994446;28;20215;-76
2023/05/27 06:53:57;;;;;;;15.13;5.67;;;;;;;14.19;100.00;102988.28;4999153;28;20191;-74
2023/05/27 06:56:30;;;;;;;15.13;5.17;;;;;;;14.64;100.00;102979.72;4992711;28;20274;-74
2023/05/27 06:59:15;;;;;;;14.83;5.20;;;;;;;14.95;100.00;102966.25;4980811;28;20223;-74
2023/05/27 07:01:41;;;;;;;14.17;5.10;;;;;;;14.95;100.00;102953.34;4988418;28;20218;-74
2023/05/27 07:04:10;;;;;;;14.70;4.83;;;;;;;14.92;100.00;102981.63;4998276;28;20223;-74
2023/05/27 07:06:45;;;;;;;13.50;5.03;;;;;;;15.19;100.00;102952.50;4992743;28;20190;-76
2023/05/27 07:09:12;;;;;;;15.10;4.80;;;;;;;15.43;100.00;102953.34;4994433;28;20353;-73
2023/05/27 07:11:37;;;;;;;13.33;4.63;;;;;;;15.61;100.00;102945.38;5012278;28;20238;-73
2023/05/27 07:14:09;;;;;;;16.73;5.27;;;;;;;15.61;100.00;102922.97;4995679;28;20223;-74
2023/05/27 07:16:35;;;;;;;14.23;5.27;;;;;;;15.85;100.00;102936.69;5000104;28;20187;-73
2023/05/27 07:19:02;;;;;;;14.33;4.90;;;;;;;15.97;100.00;102931.88;4996737;28;20200;-76
2023/05/27 07:21:31;;;;;;;12.27;5.00;;;;;;;15.59;100.00;102916.91;4999420;28;20653;-74
2023/05/27 07:23:58;;;;;;;14.17;5.63;;;;;;;15.49;100.00;102937.19;5003958;28;20241;-75
2023/05/27 07:26:32;;;;;;;13.87;4.70;;;;;;;16.01;100.00;102956.13;4994550;28;20237;-73
2023/05/27 07:28:59;;;;;;;11.00;5.17;;;;;;;16.05;100.00;102880.44;4995416;28;20691;-74
2023/05/27 07:31:57;;;;;;;17.53;5.43;;;;;;;16.31;100.00;102885.53;4972149;28;20696;-75
2023/05/27 07:34:25;;;;;;;14.90;4.90;;;;;;;16.26;100.00;102853.50;4993290;28;20215;-73
2023/05/27 07:36:51;;;;;;;13.27;4.83;;;;;;;16.43;100.00;102875.56;5004645;28;20195;-74
2023/05/27 07:39:17;;;;;;;15.43;5.07;;;;;;;16.45;100.00;102819.63;4999513;28;20222;-76
2023/05/27 07:41:43;;;;;;;12.93;5.37;;;;;;;16.74;100.00;102789.31;5002856;28;20194;-74
2023/05/27 07:44:08;;;;;;;13.20;4.90;;;;;;;16.94;100.00;102825.22;4977029;28;20191;-75
2023/05/27 07:46:34;;;;;;;12.87;4.87;;;;;;;16.73;100.00;102801.41;4999657;28;20560;-76
2023/05/27 07:49:00;;;;;;;13.37;4.83;;;;;;;17.02;100.00;102802.09;4993608;28;20210;-73
2023/05/27 07:51:26;;;;;;;11.43;4.80;;;;;;;17.22;100.00;102749.09;4987412;28;20215;-76
2023/05/27 07:53:52;;;;;;;13.30;5.17;;;;;;;16.94;100.00;102794.16;4978501;28;20195;-74
2023/05/27 07:56:19;;;;;;;12.97;4.80;;;;;;;16.80;100.00;102828.31;4998147;28;20697;-74
2023/05/27 07:58:44;;;;;;;13.13;4.73;;;;;;;16.62;100.00;102813.16;5006280;28;20199;-73
2023/05/27 08:01:11;;;;;;;13.37;5.07;;;;;;;16.97;100.00;102772.63;4992410;28;20269;-74
2023/05/27 08:03:39;;;;;;;15.53;4.93;;;;;;;17.20;100.00;102769.78;4993066;28;20187;-73
2023/05/27 08:06:28;;;;;;;15.03;4.60;;;;;;;17.50;100.00;102746.31;4996514;28;20210;-74
2023/05/27 08:09:20;;;;;;;14.23;4.53;;;;;;;17.83;100.00;102709.00;5008132;28;20219;-74
2023/05/27 08:12:11;;;;;;;12.80;4.30;;;;;;;18.30;100.00;102656.31;4986127;28;20223;-75
2023/05/27 08:14:55;;;;;;;13.93;4.37;;;;;;;18.57;100.00;102601.41;4996113;28;20246;-75
2023/05/27 08:17:39;;;;;;;13.30;4.37;;;;;;;17.94;100.00;102561.44;4992315;28;20870;-74
2023/05/27 08:20:33;;;;;;;14.00;4.80;;;;;;;18.64;100.00;102557.41;4991590;28;20700;-73
2023/05/27 08:23:04;;;;;;;13.20;4.53;;;;;;;18.69;100.00;102528.91;5010993;28;20778;-77
2023/05/27 08:25:30;;;;;;;13.13;4.07;;;;;;;18.45;100.00;102528.56;5008541;28;20195;-73
2023/05/27 08:28:08;;;;;;;14.20;4.37;;;;;;;18.70;100.00;102520.28;4993793;28;20293;-74
2023/05/27 08:30:47;;;;;;;13.53;4.33;;;;;;;18.38;100.00;102498.22;4986093;28;20231;-73
2023/05/27 08:33:19;;;;;;;14.87;4.37;;;;;;;18.35;97.50;102492.97;4993967;28;20286;-76
2023/05/27 08:35:45;;;;;;;11.53;4.07;;;;;;;17.78;99.29;102492.91;4992885;28;20329;-73
2023/05/27 08:38:11;;;;;;;8.83;3.60;;;;;;;18.13;99.57;102520.28;4997599;28;20198;-73
2023/05/27 08:40:39;;;;;;;16.00;4.57;;;;;;;18.73;96.89;102491.75;4975487;28;20684;-74
2023/05/27 08:43:06;;;;;;;15.03;4.53;;;;;;;19.06;90.33;102455.78;4988264;28;20243;-74
2023/05/27 08:45:33;;;;;;;13.33;4.07;;;;;;;19.46;80.67;102396.47;5008379;28;20227;-75
2023/05/27 08:47:59;;;;;;;13.60;4.40;;;;;;;19.42;79.07;102396.44;4976403;28;20195;-74
2023/05/27 08:50:32;;;;;;;11.13;4.43;;;;;;;18.67;88.10;102478.72;4992367;28;20259;-74
2023/05/27 08:52:59;;;;;;;10.27;4.07;;;;;;;19.49;78.49;102426.81;4975069;28;20333;-74
2023/05/27 08:55:28;;;;;;;14.17;4.30;;;;;;;19.49;82.77;102468.41;4975719;28;20202;-74
2023/05/27 08:57:55;;;;;;;13.60;4.30;;;;;;;20.08;76.78;102448.97;4989296;28;20253;-74
2023/05/27 09:00:22;;;;;;;13.37;3.90;;;;;;;20.25;73.27;102452.53;5017340;28;20211;-76
2023/05/27 09:02:48;;;;;;;14.63;4.47;;;;;;;19.98;80.36;102488.72;4991910;28;20191;-73
2023/05/27 09:05:16;;;;;;;15.57;4.73;;;;;;;20.29;73.39;102460.38;4991004;28;20206;-74
2023/05/27 09:07:42;;;;;;;12.37;5.03;;;;;;;19.49;75.72;102468.41;5009033;28;20234;-76
2023/05/27 09:10:08;;;;;;;10.33;3.93;;;;;;;19.75;75.67;102477.28;5008430;28;20218;-74
2023/05/27 09:12:35;;;;;;;10.90;4.67;;;;;;;20.32;73.24;102469.94;5006568;28;20191;-74
2023/05/27 09:15:03;;;;;;;11.03;4.97;;;;;;;20.91;70.93;102458.94;4974387;28;20203;-73
2023/05/27 09:17:29;;;;;;;12.40;4.93;;;;;;;21.05;73.76;102483.28;4998409;28;20195;-73
2023/05/27 09:19:55;;;;;;;10.67;4.73;;;;;;;21.12;71.19;102479.84;5009383;28;20215;-74
2023/05/27 09:22:40;;;;;;;14.57;4.27;;;;;;;21.53;71.31;102500.75;5009676;28;20183;-74
2023/05/27 09:25:06;;;;;;;15.87;4.87;;;;;;;21.71;66.18;102467.78;4993817;28;20195;-73
2023/05/27 09:27:31;;;;;;;11.70;4.43;;;;;;;21.51;60.70;102447.75;4967709;28;20283;-74
2023/05/27 09:30:06;;;;;;;11.27;4.07;;;;;;;21.50;61.94;102472.94;5009374;28;20230;-73
2023/05/27 09:32:32;;;;;;;13.90;4.87;;;;;;;21.55;58.61;102458.19;5009438;28;20800;-73
2023/05/27 09:35:00;;;;;;;11.33;4.50;;;;;;;21.97;60.80;102492.09;5005937;28;20195;-73
2023/05/27 09:37:34;;;;;;;13.33;5.17;;;;;;;22.35;63.21;102513.78;5009552;28;20580;-73
2023/05/27 09:40:07;;;;;;;12.00;4.50;;;;;;;21.42;59.25;102499.91;5009381;28;20218;-72
2023/05/27 09:42:43;;;;;;;12.47;4.87;;;;;;;20.93;61.59;102516.25;5009379;28;20302;-72
2023/05/27 09:45:14;;;;;;;12.10;4.87;;;;;;;20.55;59.17;102499.56;4975976;28;20225;-72
2023/05/27 09:47:46;;;;;;;11.13;4.70;;;;;;;20.95;57.58;102493.66;4991732;28;20191;-73
2023/05/27 09:50:15;;;;;;;14.17;5.13;;;;;;;21.59;57.57;102490.34;5008885;28;20222;-72
2023/05/27 09:52:43;;;;;;;10.03;4.07;;;;;;;21.83;56.04;102506.91;4992842;28;20221;-73
2023/05/27 09:55:11;;;;;;;10.33;4.07;;;;;;;22.23;55.13;102504.28;5009191;28;20202;-73
2023/05/27 09:57:36;;;;;;;11.53;4.87;;;;;;;22.19;52.76;102508.59;5005285;28;20203;-72
2023/05/27 10:00:17;;;;;;;9.30;4.20;;;;;;;22.58;52.84;102516.41;4998560;28;20219;-72
2023/05/27 10:02:45;;;;;;;11.53;4.53;;;;;;;22.80;52.80;102532.88;4998850;28;20946;-72
2023/05/27 10:05:15;;;;;;;11.43;4.53;;;;;;;23.01;55.21;102554.56;5008401;28;20662;-73
2023/05/27 10:07:43;;;;;;;12.67;4.77;;;;;;;23.13;51.43;102515.31;4992641;28;20195;-72
2023/05/27 10:10:11;;;;;;;11.57;4.50;;;;;;;23.23;51.42;102534.44;5006195;28;20211;-73
2023/05/27 10:12:41;;;;;;;10.43;7.27;;;;;;;23.34;51.69;102523.03;4980237;28;20195;-72
2023/05/27 10:15:07;;;;;;;10.80;4.30;;;;;;;22.88;50.08;102521.50;5008599;28;20290;-73
2023/05/27 10:17:49;;;;;;;12.13;5.00;;;;;;;21.73;51.06;102553.84;5008315;28;20562;-73
2023/05/27 10:20:26;;;;;;;13.17;4.20;;;;;;;21.57;50.66;102557.28;4968538;28;20246;-73
2023/05/27 10:22:51;;;;;;;12.03;4.47;;;;;;;20.56;52.02;102574.19;5008906;28;20209;-73
2023/05/27 10:25:17;;;;;;;12.37;4.50;;;;;;;21.07;53.77;102596.22;5008036;28;20203;-76
2023/05/27 10:27:45;;;;;;;10.47;4.23;;;;;;;21.69;52.42;102575.59;4984780;28;20254;-74
2023/05/27 10:30:15;;;;;;;8.77;3.97;;;;;;;22.23;50.50;102523.41;5007257;28;20269;-73
2023/05/27 10:32:58;;;;;;;12.23;4.53;;;;;;;22.13;51.01;102540.84;5008411;28;20210;-73
2023/05/27 10:35:27;;;;;;;7.27;4.50;;;;;;;22.03;51.55;102552.13;5006287;28;20199;-73
2023/05/27 10:37:53;;;;;;;9.73;4.60;;;;;;;21.58;48.98;102525.09;5005049;28;20202;-73
2023/05/27 10:40:25;;;;;;;10.63;4.80;;;;;;;22.17;49.76;102558.22;5007797;28;20285;-73
2023/05/27 10:43:02;;;;;;;10.27;4.27;;;;;;;22.84;47.99;102508.47;4984768;28;20191;-74
2023/05/27 10:45:34;;;;;;;11.13;4.20;;;;;;;22.89;48.13;102517.16;5008651;28;20199;-73
2023/05/27 10:48:00;;;;;;;15.53;4.60;;;;;;;23.27;49.48;102544.91;4990746;28;20191;-72
2023/05/27 10:50:33;;;;;;;11.23;4.30;;;;;;;23.39;49.46;102533.50;4992528;28;20239;-75
2023/05/27 10:53:01;;;;;;;10.65;4.22;;;;;;;23.35;48.59;102516.97;5002582;28;20230;-73
2023/05/27 10:55:27;;;;;;;14.02;4.25;;;;;;;23.48;49.13;102539.53;4989775;28;20191;-72
2023/05/27 10:57:52;;;;;;;9.35;3.85;;;;;;;23.81;46.39;102509.63;5005053;28;20248;-75
2023/05/27 11:00:20;;;;;;;10.70;4.38;;;;;;;23.58;46.40;102554.28;5007639;28;20314;-73
2023/05/27 11:02:46;;;;;;;11.65;4.43;;;;;;;23.74;47.72;102583.84;5008440;28;20199;-73
2023/05/27 11:05:15;;;;;;;9.30;3.97;;;;;;;22.81;46.71;102552.91;5020114;28;20563;-72
2023/05/27 11:07:41;;;;;;;9.75;4.30;;;;;;;23.58;47.90;102590.06;5008090;28;20238;-73
2023/05/27 11:10:08;;;;;;;13.10;4.35;;;;;;;23.14;47.37;102568.44;5008230;28;20219;-73
2023/05/27 11:12:34;;;;;;;9.93;4.30;;;;;;;22.96;47.09;102553.72;5008208;28;20629;-74
2023/05/27 11:15:00;;;;;;;11.90;4.23;;;;;;;23.25;47.26;102553.63;4990633;28;20195;-73
2023/05/27 11:17:25;;;;;;;8.83;4.03;;;;;;;23.49;47.55;102538.66;5011186;28;20570;-74
2023/05/27 11:19:52;;;;;;;11.13;4.75;;;;;;;23.51;45.18;102522.94;5011608;28;20218;-72